createdAt,value
2017-09-22T00:00:47.849Z,99334.67
2017-09-22T00:03:15.294Z,99331.47
2017-09-22T00:05:42.784Z,99331.47
2017-09-22T00:08:10.229Z,99326.57
2017-09-22T00:10:37.709Z,99326.83
2017-09-22T00:13:05.176Z,99334.20
2017-09-22T00:15:33.000Z,99332.03
2017-09-22T00:18:00.457Z,99333.47
2017-09-22T00:20:27.916Z,99334.12
2017-09-22T00:22:55.400Z,99332.38
2017-09-22T00:25:22.903Z,99340.25
2017-09-22T00:27:50.386Z,99336.28
2017-09-22T00:30:17.885Z,99334.83
2017-09-22T00:32:45.429Z,99333.59
2017-09-22T00:35:12.915Z,99332.69
2017-09-22T00:37:40.384Z,99331.91
2017-09-22T00:40:07.873Z,99321.56
2017-09-22T00:42:35.472Z,99325.25
2017-09-22T00:45:02.915Z,99324.95
2017-09-22T00:47:30.403Z,99327.77
2017-09-22T00:49:57.885Z,99325.25
2017-09-22T00:52:25.346Z,99322.28
2017-09-22T00:54:52.837Z,99319.92
2017-09-22T00:57:20.281Z,99325.45
2017-09-22T00:59:47.759Z,99324.95
2017-09-22T01:02:15.205Z,99321.16
2017-09-22T01:04:42.724Z,99321.94
2017-09-22T01:07:10.253Z,99316.61
2017-09-22T01:09:37.746Z,99311.73
2017-09-22T01:12:05.229Z,99314.89
2017-09-22T01:14:32.672Z,99311.60
2017-09-22T01:17:00.146Z,99310.33
2017-09-22T01:19:27.604Z,99304.16
2017-09-22T01:21:55.084Z,99285.10
2017-09-22T01:24:22.551Z,99303.66
2017-09-22T01:26:50.024Z,99305.03
2017-09-22T01:29:17.483Z,99300.27
2017-09-22T01:31:44.969Z,99300.27
2017-09-22T01:34:12.481Z,99290.45
2017-09-22T01:36:39.942Z,99291.23
2017-09-22T01:39:07.420Z,99291.80
2017-09-22T01:41:34.896Z,99290.09
2017-09-22T01:44:02.380Z,99296.19
2017-09-22T01:46:29.855Z,99295.98
2017-09-22T01:48:57.348Z,99298.68
2017-09-22T01:51:24.821Z,99300.07
2017-09-22T01:53:52.281Z,99305.07
2017-09-22T01:56:19.749Z,99289.96
2017-09-22T01:58:47.229Z,99290.36
2017-09-22T02:01:14.690Z,99300.78
2017-09-22T02:03:42.174Z,99293.95
2017-09-22T02:06:09.645Z,99293.97
2017-09-22T02:08:37.125Z,99302.72
2017-09-22T02:11:04.586Z,99300.72
2017-09-22T02:13:32.083Z,99291.50
2017-09-22T02:15:59.575Z,99293.17
2017-09-22T02:18:27.017Z,99295.67
2017-09-22T02:20:54.506Z,99293.07
2017-09-22T02:23:21.973Z,99296.77
2017-09-22T02:25:49.450Z,99295.85
2017-09-22T02:28:16.897Z,99295.05
2017-09-22T02:30:44.365Z,99296.16
2017-09-22T02:33:11.809Z,99303.34
2017-09-22T02:35:39.310Z,99298.88
2017-09-22T02:38:06.819Z,99302.41
2017-09-22T02:40:34.285Z,99303.23
2017-09-22T02:43:01.770Z,99305.56
2017-09-22T02:45:29.237Z,99300.91
2017-09-22T02:47:56.697Z,99296.81
2017-09-22T02:50:24.165Z,99297.61
2017-09-22T02:52:51.656Z,99299.94
2017-09-22T02:55:19.165Z,99306.83
2017-09-22T02:57:46.630Z,99308.72
2017-09-22T03:00:14.109Z,99308.86
2017-09-22T03:02:41.584Z,99305.08
2017-09-22T03:05:09.067Z,99310.55
2017-09-22T03:07:36.513Z,99308.17
2017-09-22T03:10:03.992Z,99303.58
2017-09-22T03:12:31.463Z,99306.83
2017-09-22T03:14:58.951Z,99302.72
2017-09-22T03:17:26.392Z,99304.81
2017-09-22T03:19:54.207Z,99302.52
2017-09-22T03:22:21.663Z,99293.39
2017-09-22T03:24:49.116Z,99297.44
2017-09-22T03:27:16.620Z,99291.97
2017-09-22T03:29:44.082Z,99292.48
2017-09-22T03:32:11.562Z,99292.08
2017-09-22T03:34:39.025Z,99290.53
2017-09-22T03:37:06.509Z,99293.11
2017-09-22T03:39:33.968Z,99289.52
2017-09-22T03:42:01.469Z,99286.55
2017-09-22T03:44:28.929Z,99291.87
2017-09-22T03:46:56.396Z,99287.58
2017-09-22T03:49:23.868Z,99295.40
2017-09-22T03:51:51.333Z,99284.87
2017-09-22T03:54:18.841Z,99287.97
2017-09-22T03:56:46.290Z,99294.97
2017-09-22T03:59:13.761Z,99288.68
2017-09-22T04:01:42.125Z,99291.75
2017-09-22T04:04:09.598Z,99296.95
2017-09-22T04:06:37.057Z,99299.44
2017-09-22T04:09:04.526Z,99289.80
2017-09-22T04:11:32.041Z,99287.36
2017-09-22T04:13:59.505Z,99290.84
2017-09-22T04:16:26.996Z,99295.82
2017-09-22T04:18:54.444Z,99295.86
2017-09-22T04:21:21.922Z,99302.22
2017-09-22T04:23:49.377Z,99311.31
2017-09-22T04:26:16.864Z,99313.47
2017-09-22T04:28:44.325Z,99311.69
2017-09-22T04:31:11.810Z,99305.14
2017-09-22T04:33:39.266Z,99321.84
2017-09-22T04:36:06.753Z,99315.48
2017-09-22T04:38:34.212Z,99314.29
2017-09-22T04:41:01.678Z,99315.50
2017-09-22T04:43:29.159Z,99316.97
2017-09-22T04:45:56.613Z,99324.91
2017-09-22T04:48:24.095Z,99321.44
2017-09-22T04:50:51.545Z,99327.73
2017-09-22T04:53:19.120Z,99327.31
2017-09-22T04:55:46.598Z,99327.78
2017-09-22T04:58:14.071Z,99322.52
2017-09-22T05:00:41.519Z,99326.76
2017-09-22T05:03:08.959Z,99329.58
2017-09-22T05:05:36.451Z,99331.78
2017-09-22T05:08:03.910Z,99325.37
2017-09-22T05:10:31.394Z,99314.77
2017-09-22T05:12:58.860Z,99330.67
2017-09-22T05:15:26.355Z,99320.82
2017-09-22T05:17:53.807Z,99319.66
2017-09-22T05:20:21.282Z,99322.91
2017-09-22T05:22:48.725Z,99323.20
2017-09-22T05:25:16.217Z,99315.40
2017-09-22T05:27:43.710Z,99318.86
2017-09-22T05:30:11.234Z,99325.43
2017-09-22T05:32:38.706Z,99327.99
2017-09-22T05:35:06.160Z,99329.02
2017-09-22T05:37:33.649Z,99327.95
2017-09-22T05:40:01.097Z,99324.04
2017-09-22T05:42:28.594Z,99327.15
2017-09-22T05:44:56.058Z,99328.77
2017-09-22T05:47:23.591Z,99335.50
2017-09-22T05:49:51.036Z,99333.34
2017-09-22T05:52:18.524Z,99312.56
2017-09-22T05:54:46.007Z,99345.80
2017-09-22T05:57:13.487Z,99340.86
2017-09-22T05:59:41.011Z,99349.25
2017-09-22T06:02:08.479Z,99348.14
2017-09-22T06:04:36.015Z,99349.39
2017-09-22T06:07:03.491Z,99337.59
2017-09-22T06:09:30.964Z,99358.05
2017-09-22T06:11:59.330Z,99355.52
2017-09-22T06:14:26.814Z,99344.38
2017-09-22T06:16:54.265Z,99354.45
2017-09-22T06:19:21.794Z,99344.19
2017-09-22T06:21:49.261Z,99347.89
2017-09-22T06:24:16.737Z,99355.19
2017-09-22T06:26:44.221Z,99353.31
2017-09-22T06:29:11.679Z,99351.59
2017-09-22T06:31:39.171Z,99350.48
2017-09-22T06:34:07.074Z,99349.06
2017-09-22T06:36:34.568Z,99346.09
2017-09-22T06:39:02.029Z,99342.71
2017-09-22T06:41:29.521Z,99348.38
2017-09-22T06:43:57.096Z,99353.17
2017-09-22T06:46:24.591Z,99356.28
2017-09-22T06:48:52.149Z,99351.17
2017-09-22T06:51:19.618Z,99350.08
2017-09-22T06:53:47.144Z,99357.31
2017-09-22T06:56:14.597Z,99359.28
2017-09-22T06:58:42.129Z,99363.98
2017-09-22T07:01:09.578Z,99365.47
2017-09-22T07:03:37.154Z,99367.07
2017-09-22T07:06:04.660Z,99369.88
2017-09-22T07:08:32.200Z,99371.73
2017-09-22T07:10:59.705Z,99355.17
2017-09-22T07:13:27.174Z,99374.98
2017-09-22T07:15:54.650Z,99376.50
2017-09-22T07:18:22.118Z,99390.44
2017-09-22T07:20:49.620Z,99382.95
2017-09-22T07:23:17.117Z,99384.42
2017-09-22T07:25:44.617Z,99381.13
2017-09-22T07:28:12.119Z,99382.77
2017-09-22T07:30:39.671Z,99367.55
2017-09-22T07:33:07.229Z,99392.27
2017-09-22T07:35:34.726Z,99392.43
2017-09-22T07:38:02.226Z,99386.24
2017-09-22T07:40:29.742Z,99383.47
2017-09-22T07:42:57.228Z,99383.63
2017-09-22T07:45:24.730Z,99384.36
2017-09-22T07:47:53.276Z,99382.92
2017-09-22T07:50:20.846Z,99383.87
2017-09-22T07:52:48.438Z,99385.20
2017-09-22T07:55:15.913Z,99386.77
2017-09-22T07:57:43.414Z,99388.37
2017-09-22T08:00:10.912Z,99347.54
2017-09-22T08:02:38.382Z,99374.19
2017-09-22T08:05:05.860Z,99397.27
2017-09-22T08:07:33.337Z,99400.05
2017-09-22T08:10:00.844Z,99400.98
2017-09-22T08:12:28.318Z,99393.16
2017-09-22T08:14:55.808Z,99397.40
2017-09-22T08:17:23.265Z,99402.95
2017-09-22T08:19:50.846Z,99395.38
2017-09-22T08:22:18.337Z,99384.08
2017-09-22T08:24:45.870Z,99399.35
2017-09-22T08:27:13.387Z,99401.27
2017-09-22T08:29:40.845Z,99399.33
2017-09-22T08:32:08.335Z,99395.62
2017-09-22T08:34:35.820Z,99399.72
2017-09-22T08:37:03.318Z,99399.48
2017-09-22T08:39:30.781Z,99405.00
2017-09-22T08:41:58.269Z,99401.23
2017-09-22T08:44:25.733Z,99397.32
2017-09-22T08:46:53.210Z,99401.73
2017-09-22T08:49:20.790Z,99404.11
2017-09-22T08:51:48.252Z,99402.57
2017-09-22T08:54:15.762Z,99400.90
2017-09-22T08:56:43.253Z,99353.19
2017-09-22T08:59:10.764Z,99391.77
2017-09-22T09:01:38.256Z,99374.98
2017-09-22T09:04:05.750Z,99385.13
2017-09-22T09:06:33.251Z,99375.68
2017-09-22T09:09:00.747Z,99375.88
2017-09-22T09:11:28.243Z,99364.28
2017-09-22T09:13:55.773Z,99368.03
2017-09-22T09:16:23.237Z,99375.19
2017-09-22T09:18:50.708Z,99382.52
2017-09-22T09:21:18.246Z,99380.26
2017-09-22T09:23:45.737Z,99373.44
2017-09-22T09:26:13.274Z,99376.19
2017-09-22T09:28:40.775Z,99373.89
2017-09-22T09:31:08.294Z,99377.06
2017-09-22T09:33:35.763Z,99369.28
2017-09-22T09:36:03.764Z,99374.46
2017-09-22T09:38:31.260Z,99369.17
2017-09-22T09:40:58.727Z,99375.56
2017-09-22T09:43:26.281Z,99376.09
2017-09-22T09:45:53.788Z,99373.67
2017-09-22T09:48:21.330Z,99374.41
2017-09-22T09:50:48.837Z,99375.98
2017-09-22T09:53:16.343Z,99369.27
2017-09-22T09:55:43.849Z,99366.53
2017-09-22T09:58:11.342Z,99366.36
2017-09-22T10:00:38.806Z,99372.47
2017-09-22T10:03:06.293Z,99371.35
2017-09-22T10:05:33.762Z,99373.55
2017-09-22T10:08:01.252Z,99370.75
2017-09-22T10:10:28.745Z,99376.34
2017-09-22T10:12:56.194Z,99373.42
2017-09-22T10:15:23.688Z,99366.88
2017-09-22T10:17:51.158Z,99363.95
2017-09-22T10:20:18.644Z,99364.94
2017-09-22T10:22:46.128Z,99360.74
2017-09-22T10:25:13.621Z,99349.88
2017-09-22T10:27:41.838Z,99357.77
2017-09-22T10:30:09.316Z,99349.27
2017-09-22T10:32:36.813Z,99358.88
2017-09-22T10:35:04.290Z,99353.12
2017-09-22T10:37:31.784Z,99354.86
2017-09-22T10:39:59.285Z,99353.91
2017-09-22T10:42:26.774Z,99361.05
2017-09-22T10:44:54.233Z,99353.75
2017-09-22T10:47:21.765Z,99355.69
2017-09-22T10:49:49.253Z,99351.78
2017-09-22T10:52:17.223Z,99353.77
2017-09-22T10:54:44.693Z,99349.64
2017-09-22T10:57:12.160Z,99354.40
2017-09-22T10:59:40.467Z,99349.12
2017-09-22T11:02:07.952Z,99354.48
2017-09-22T11:04:35.465Z,99358.03
2017-09-22T11:07:02.951Z,99355.94
2017-09-22T11:09:30.428Z,99355.17
2017-09-22T11:11:57.900Z,99352.74
2017-09-22T11:14:25.418Z,99352.09
2017-09-22T11:16:52.947Z,99355.20
2017-09-22T11:19:20.433Z,99355.22
2017-09-22T11:21:47.949Z,99361.36
2017-09-22T11:24:15.402Z,99365.62
2017-09-22T11:26:42.914Z,99363.31
2017-09-22T11:29:10.382Z,99369.21
2017-09-22T11:31:37.419Z,99364.48
2017-09-22T11:34:04.334Z,99360.13
2017-09-22T11:36:31.826Z,99361.83
2017-09-22T11:38:59.314Z,99362.66
2017-09-22T11:41:26.777Z,99352.53
2017-09-22T11:43:54.265Z,99354.56
2017-09-22T11:46:21.764Z,99357.47
2017-09-22T11:48:49.268Z,99352.53
2017-09-22T11:51:16.737Z,99350.25
2017-09-22T11:53:44.245Z,99347.45
2017-09-22T11:56:11.739Z,99344.91
2017-09-22T11:58:39.200Z,99343.58
2017-09-22T12:01:06.761Z,99343.25
2017-09-22T12:03:34.213Z,99339.93
2017-09-22T12:06:01.699Z,99335.89
2017-09-22T12:08:29.179Z,99339.44
2017-09-22T12:10:56.676Z,99333.32
2017-09-22T12:13:24.164Z,99341.91
2017-09-22T12:15:51.613Z,99336.70
2017-09-22T12:18:19.165Z,99339.53
2017-09-22T12:20:46.622Z,99338.91
2017-09-22T12:23:14.141Z,99347.22
2017-09-22T12:25:41.612Z,99336.73
2017-09-22T12:28:09.121Z,99336.28
2017-09-22T12:30:36.638Z,99341.39
2017-09-22T12:33:04.099Z,99348.59
2017-09-22T12:35:31.604Z,99340.75
2017-09-22T12:37:59.127Z,99336.94
2017-09-22T12:40:26.613Z,99343.69
2017-09-22T12:42:54.073Z,99351.16
2017-09-22T12:45:21.570Z,99341.38
2017-09-22T12:47:49.065Z,99345.28
2017-09-22T12:50:16.522Z,99347.55
2017-09-22T12:52:44.009Z,99347.48
2017-09-22T12:55:11.485Z,99349.24
2017-09-22T12:57:39.069Z,99343.56
2017-09-22T13:00:06.515Z,99350.54
2017-09-22T13:02:33.993Z,99341.92
2017-09-22T13:05:01.489Z,99345.30
2017-09-22T13:07:29.057Z,99346.58
2017-09-22T13:09:56.864Z,99354.23
2017-09-22T13:12:24.330Z,99347.77
2017-09-22T13:14:51.835Z,99354.25
2017-09-22T13:17:19.363Z,99357.73
2017-09-22T13:19:46.844Z,99356.36
2017-09-22T13:22:14.309Z,99355.27
2017-09-22T13:24:41.793Z,99350.91
2017-09-22T13:27:09.257Z,99352.69
2017-09-22T13:29:36.754Z,99335.44
2017-09-22T13:32:04.276Z,99344.19
2017-09-22T13:34:31.769Z,99347.26
2017-09-22T13:36:59.230Z,99343.76
2017-09-22T13:39:26.793Z,99352.39
2017-09-22T13:41:54.275Z,99346.39
2017-09-22T13:44:21.743Z,99348.32
2017-09-22T13:46:49.255Z,99346.58
2017-09-22T13:49:16.753Z,99348.29
2017-09-22T13:51:44.245Z,99348.34
2017-09-22T13:54:11.753Z,99347.94
2017-09-22T13:56:39.260Z,99342.81
2017-09-22T13:59:06.757Z,99339.42
2017-09-22T14:01:34.238Z,99341.33
2017-09-22T14:04:01.748Z,99342.34
2017-09-22T14:06:29.214Z,99341.34
2017-09-22T14:08:56.722Z,99346.20
2017-09-22T14:11:24.182Z,99349.22
2017-09-22T14:13:51.693Z,99347.52
2017-09-22T14:16:19.228Z,99340.50
2017-09-22T14:18:46.681Z,99343.80
2017-09-22T14:21:14.194Z,99343.20
2017-09-22T14:23:41.673Z,99337.34
2017-09-22T14:26:09.175Z,99345.07
2017-09-22T14:28:36.684Z,99342.25
2017-09-22T14:31:04.197Z,99344.23
2017-09-22T14:33:31.705Z,99341.48
2017-09-22T14:35:59.225Z,99339.14
2017-09-22T14:38:26.716Z,99344.50
2017-09-22T14:40:54.206Z,99344.31
2017-09-22T14:43:21.695Z,99344.56
2017-09-22T14:45:49.184Z,99346.69
2017-09-22T14:48:16.677Z,99346.80
2017-09-22T14:50:44.202Z,99344.28
2017-09-22T14:53:11.728Z,99347.30
2017-09-22T14:55:39.201Z,99356.09
2017-09-22T14:58:06.714Z,99355.63
2017-09-22T15:00:34.190Z,99350.92
2017-09-22T15:03:01.639Z,99357.95
2017-09-22T15:05:29.151Z,99359.06
2017-09-22T15:07:56.637Z,99353.18
2017-09-22T15:10:24.133Z,99350.37
2017-09-22T15:12:51.589Z,99356.13
2017-09-22T15:15:19.170Z,99361.52
2017-09-22T15:17:46.701Z,99353.35
2017-09-22T15:20:14.236Z,99359.81
2017-09-22T15:22:41.684Z,99355.50
2017-09-22T15:25:09.186Z,99360.98
2017-09-22T15:27:36.641Z,99359.14
2017-09-22T15:30:04.136Z,99354.44
2017-09-22T15:32:31.671Z,99353.16
2017-09-22T15:34:59.133Z,99349.91
2017-09-22T15:37:26.949Z,99352.94
2017-09-22T15:39:54.441Z,99333.53
2017-09-22T15:42:22.104Z,99354.05
2017-09-22T15:44:49.586Z,99328.56
2017-09-22T15:47:17.095Z,99352.70
2017-09-22T15:49:44.630Z,99352.77
2017-09-22T15:52:12.150Z,99354.51
2017-09-22T15:54:39.607Z,99351.98
2017-09-22T15:57:07.083Z,99354.13
2017-09-22T15:59:34.580Z,99357.91
2017-09-22T16:02:02.043Z,99361.34
2017-09-22T16:04:29.550Z,99363.75
2017-09-22T16:06:57.002Z,99364.17
2017-09-22T16:09:24.457Z,99362.92
2017-09-22T16:11:51.962Z,99366.29
2017-09-22T16:14:19.599Z,99368.34
2017-09-22T16:16:47.076Z,99364.34
2017-09-22T16:19:14.744Z,99361.34
2017-09-22T16:21:42.216Z,99348.81
2017-09-22T16:24:09.684Z,99359.40
2017-09-22T16:26:37.858Z,99366.67
2017-09-22T16:29:05.318Z,99364.94
2017-09-22T16:31:32.806Z,99369.85
2017-09-22T16:34:00.283Z,99360.63
2017-09-22T16:36:27.778Z,99361.11
2017-09-22T16:38:55.236Z,99361.11
2017-09-22T16:41:22.716Z,99358.66
2017-09-22T16:43:50.233Z,99366.47
2017-09-22T16:46:17.995Z,99368.22
2017-09-22T16:48:45.460Z,99365.12
2017-09-22T16:51:13.126Z,99370.50
2017-09-22T16:53:40.641Z,99371.16
2017-09-22T16:56:08.109Z,99375.28
2017-09-22T16:58:35.782Z,99376.17
2017-09-22T17:01:03.268Z,99373.41
2017-09-22T17:03:30.789Z,99376.09
2017-09-22T17:05:58.248Z,99382.34
2017-09-22T17:08:25.849Z,99380.68
2017-09-22T17:10:53.331Z,99381.84
2017-09-22T17:13:20.825Z,99384.71
2017-09-22T17:15:48.329Z,99383.98
2017-09-22T17:18:15.800Z,99381.92
2017-09-22T17:20:43.271Z,99393.45
2017-09-22T17:23:10.765Z,99397.88
2017-09-22T17:25:38.279Z,99393.84
2017-09-22T17:28:05.741Z,99401.09
2017-09-22T17:30:33.226Z,99399.89
2017-09-22T17:33:00.698Z,99397.50
2017-09-22T17:35:28.217Z,99405.93
2017-09-22T17:37:55.691Z,99397.39
2017-09-22T17:40:23.206Z,99403.45
2017-09-22T17:42:50.698Z,99417.25
2017-09-22T17:45:18.189Z,99411.71
2017-09-22T17:47:45.638Z,99420.84
2017-09-22T17:50:13.187Z,99424.68
2017-09-22T17:52:40.649Z,99427.70
2017-09-22T17:55:08.190Z,99425.98
2017-09-22T17:57:35.693Z,99427.70
2017-09-22T18:00:03.174Z,99432.56
2017-09-22T18:02:30.650Z,99428.47
2017-09-22T18:04:58.113Z,99438.87
2017-09-22T18:07:25.606Z,99441.28
2017-09-22T18:09:53.168Z,99446.45
2017-09-22T18:12:20.617Z,99451.18
2017-09-22T18:14:48.105Z,99458.56
2017-09-22T18:17:15.586Z,99457.79
2017-09-22T18:19:43.107Z,99467.22
2017-09-22T18:22:10.636Z,99461.84
2017-09-22T18:24:38.149Z,99462.23
2017-09-22T18:27:05.601Z,99464.88
2017-09-22T18:29:33.093Z,99475.27
2017-09-22T18:32:00.548Z,99479.28
2017-09-22T18:34:28.221Z,99476.60
2017-09-22T18:36:55.695Z,99472.28
2017-09-22T18:39:23.161Z,99479.39
2017-09-22T18:41:50.655Z,99479.80
2017-09-22T18:44:18.168Z,99486.53
2017-09-22T18:46:45.674Z,99482.73
2017-09-22T18:49:13.154Z,99487.55
2017-09-22T18:51:40.654Z,99485.16
2017-09-22T18:54:08.110Z,99494.64
2017-09-22T18:56:35.691Z,99505.64
2017-09-22T18:59:03.995Z,99505.23
2017-09-22T19:01:31.474Z,99506.61
2017-09-22T19:03:58.978Z,99505.81
2017-09-22T19:06:26.459Z,99505.96
2017-09-22T19:08:53.962Z,99505.34
2017-09-22T19:11:21.429Z,99505.05
2017-09-22T19:13:49.000Z,99502.80
2017-09-22T19:16:16.504Z,99511.98
2017-09-22T19:18:43.991Z,99503.90
2017-09-22T19:21:11.538Z,99508.49
2017-09-22T19:23:39.021Z,99508.34
2017-09-22T19:26:06.521Z,99512.26
2017-09-22T19:28:34.020Z,99507.82
2017-09-22T19:31:01.490Z,99507.66
2017-09-22T19:33:29.899Z,99486.47
2017-09-22T19:35:57.420Z,99508.20
2017-09-22T19:38:24.910Z,99511.41
2017-09-22T19:40:52.405Z,99508.92
2017-09-22T19:43:19.862Z,99511.13
2017-09-22T19:45:47.339Z,99504.41
2017-09-22T19:48:14.826Z,99510.78
2017-09-22T19:50:42.302Z,99513.18
2017-09-22T19:53:09.816Z,99514.95
2017-09-22T19:55:37.292Z,99518.45
2017-09-22T19:58:04.767Z,99518.18
2017-09-22T20:00:32.234Z,99518.91
2017-09-22T20:02:59.733Z,99519.47
2017-09-22T20:05:27.218Z,99518.05
2017-09-22T20:07:54.767Z,99526.11
2017-09-22T20:10:22.239Z,99530.52
2017-09-22T20:12:49.738Z,99526.27
2017-09-22T20:15:17.221Z,99531.18
2017-09-22T20:17:44.702Z,99534.38
2017-09-22T20:20:12.172Z,99526.36
2017-09-22T20:22:39.670Z,99522.59
2017-09-22T20:25:07.144Z,99528.70
2017-09-22T20:27:34.634Z,99532.12
2017-09-22T20:30:02.133Z,99535.35
2017-09-22T20:32:29.605Z,99545.54
2017-09-22T20:34:57.117Z,99536.63
2017-09-22T20:37:24.594Z,99536.79
2017-09-22T20:39:52.084Z,99544.06
2017-09-22T20:42:19.558Z,99554.11
2017-09-22T20:44:47.056Z,99552.48
2017-09-22T20:47:14.523Z,99562.88
2017-09-22T20:49:42.020Z,99563.80
2017-09-22T20:52:09.506Z,99562.89
2017-09-22T20:54:37.036Z,99566.67
2017-09-22T20:57:04.540Z,99560.37
2017-09-22T20:59:32.041Z,99564.85
2017-09-22T21:01:59.562Z,99562.84
2017-09-22T21:04:27.026Z,99575.70
2017-09-22T21:06:54.522Z,99574.53
2017-09-22T21:09:21.977Z,99578.67
2017-09-22T21:11:49.482Z,99570.98
2017-09-22T21:14:16.939Z,99573.77
2017-09-22T21:16:44.430Z,99569.23
2017-09-22T21:19:11.927Z,99571.84
2017-09-22T21:21:39.411Z,99543.09
2017-09-22T21:24:06.899Z,99569.97
2017-09-22T21:26:34.369Z,99568.19
2017-09-22T21:29:01.882Z,99569.25
2017-09-22T21:31:29.352Z,99571.80
2017-09-22T21:33:56.842Z,99574.64
2017-09-22T21:36:24.337Z,99575.48
2017-09-22T21:38:51.855Z,99577.84
2017-09-22T21:41:19.416Z,99578.39
2017-09-22T21:43:46.968Z,99592.51
2017-09-22T21:46:14.462Z,99577.36
2017-09-22T21:48:42.005Z,99583.47
2017-09-22T21:51:09.521Z,99575.47
2017-09-22T21:53:36.978Z,99582.37
2017-09-22T21:56:04.465Z,99577.00
2017-09-22T21:58:31.983Z,99570.27
2017-09-22T22:00:59.518Z,99570.97
2017-09-22T22:03:32.455Z,99566.81
2017-09-22T22:06:05.660Z,99563.92
2017-09-22T22:08:33.163Z,99568.93
2017-09-22T22:11:00.642Z,99566.63
2017-09-22T22:13:28.099Z,99578.78
2017-09-22T22:15:55.720Z,99579.20
2017-09-22T22:18:23.220Z,99571.09
2017-09-22T22:20:50.734Z,99577.34
2017-09-22T22:23:18.257Z,99584.15
2017-09-22T22:25:45.853Z,99581.25
2017-09-22T22:28:14.478Z,99577.48
2017-09-22T22:30:41.941Z,99579.21
2017-09-22T22:33:09.432Z,99576.05
2017-09-22T22:35:36.893Z,99569.58
2017-09-22T22:38:04.388Z,99573.70
2017-09-22T22:40:31.865Z,99571.48
2017-09-22T22:42:59.364Z,99565.00
2017-09-22T22:45:26.863Z,99571.03
2017-09-22T22:47:54.322Z,99565.60
2017-09-22T22:50:21.822Z,99566.83
2017-09-22T22:52:49.309Z,99562.59
2017-09-22T22:55:16.815Z,99570.81
2017-09-22T22:57:44.309Z,99573.61
2017-09-22T23:00:11.810Z,99573.73
2017-09-22T23:02:39.290Z,99573.63
2017-09-22T23:05:06.770Z,99577.51
2017-09-22T23:07:34.252Z,99579.08
2017-09-22T23:10:01.770Z,99582.03
2017-09-22T23:12:29.261Z,99583.52
2017-09-22T23:14:56.706Z,99578.75
2017-09-22T23:17:24.192Z,99575.81
2017-09-22T23:19:51.648Z,99580.63
2017-09-22T23:22:19.168Z,99581.96
2017-09-22T23:24:47.121Z,99577.72
2017-09-22T23:27:14.627Z,99576.44
2017-09-22T23:29:42.116Z,99586.27
2017-09-22T23:32:09.615Z,99583.61
2017-09-22T23:34:37.069Z,99584.66
2017-09-22T23:37:04.563Z,99586.27
2017-09-22T23:39:32.117Z,99589.33
2017-09-22T23:41:59.589Z,99586.67
2017-09-22T23:44:27.096Z,99588.97
2017-09-22T23:46:54.564Z,99590.17
2017-09-22T23:49:22.081Z,99596.66
2017-09-22T23:51:49.542Z,99600.64
2017-09-22T23:54:17.040Z,99603.30
2017-09-22T23:56:44.489Z,99621.35
2017-09-22T23:59:11.993Z,99620.55
